sensor_id;sensor_type;location;lat;lon;timestamp;P1;durP1;ratioP1;P2;durP2;ratioP2
1376;SDS011;682;52.502;13.488;2023-05-15T00:00:47;16.00;;;14.10;;
1376;SDS011;682;52.502;13.488;2023-05-15T00:03:17;13.53;;;12.53;;
1376;SDS011;682;52.502;13.488;2023-05-15T00:05:45;14.93;;;13.50;;
1376;SDS011;682;52.502;13.488;2023-05-15T00:08:13;14.73;;;13.53;;
1376;SDS011;682;52.502;13.488;2023-05-15T00:10:40;13.50;;;12.33;;
1376;SDS011;682;52.502;13.488;2023-05-15T00:13:07;12.50;;;11.40;;
1376;SDS011;682;52.502;13.488;2023-05-15T00:15:34;14.10;;;13.00;;
1376;SDS011;682;52.502;13.488;2023-05-15T00:18:01;13.67;;;12.37;;
1376;SDS011;682;52.502;13.488;2023-05-15T00:20:30;14.10;;;12.83;;
1376;SDS011;682;52.502;13.488;2023-05-15T00:22:57;14.73;;;13.33;;
1376;SDS011;682;52.502;13.488;2023-05-15T00:25:24;13.90;;;12.67;;
1376;SDS011;682;52.502;13.488;2023-05-15T00:27:51;13.93;;;12.63;;
1376;SDS011;682;52.502;13.488;2023-05-15T00:30:26;14.27;;;12.93;;
1376;SDS011;682;52.502;13.488;2023-05-15T00:32:56;14.60;;;13.27;;
1376;SDS011;682;52.502;13.488;2023-05-15T00:35:23;12.73;;;11.53;;
1376;SDS011;682;52.502;13.488;2023-05-15T00:37:57;14.60;;;13.40;;
1376;SDS011;682;52.502;13.488;2023-05-15T00:40:24;14.50;;;13.03;;
1376;SDS011;682;52.502;13.488;2023-05-15T00:42:52;14.67;;;13.27;;
1376;SDS011;682;52.502;13.488;2023-05-15T00:45:21;13.80;;;12.70;;
1376;SDS011;682;52.502;13.488;2023-05-15T00:47:50;14.20;;;13.00;;
1376;SDS011;682;52.502;13.488;2023-05-15T00:50:18;13.87;;;12.70;;
1376;SDS011;682;52.502;13.488;2023-05-15T00:52:46;13.97;;;12.83;;
1376;SDS011;682;52.502;13.488;2023-05-15T00:55:15;13.80;;;12.50;;
1376;SDS011;682;52.502;13.488;2023-05-15T00:57:43;14.70;;;13.40;;
1376;SDS011;682;52.502;13.488;2023-05-15T01:00:15;14.43;;;12.97;;
1376;SDS011;682;52.502;13.488;2023-05-15T01:02:47;14.60;;;13.40;;
1376;SDS011;682;52.502;13.488;2023-05-15T01:05:15;14.67;;;13.43;;
1376;SDS011;682;52.502;13.488;2023-05-15T01:07:44;14.70;;;13.33;;
1376;SDS011;682;52.502;13.488;2023-05-15T01:10:18;14.80;;;13.47;;
1376;SDS011;682;52.502;13.488;2023-05-15T01:12:49;14.80;;;13.43;;
1376;SDS011;682;52.502;13.488;2023-05-15T01:15:19;14.07;;;12.90;;
1376;SDS011;682;52.502;13.488;2023-05-15T01:17:46;15.93;;;14.53;;
1376;SDS011;682;52.502;13.488;2023-05-15T01:20:14;14.90;;;13.70;;
1376;SDS011;682;52.502;13.488;2023-05-15T01:22:58;15.13;;;13.83;;
1376;SDS011;682;52.502;13.488;2023-05-15T01:28:47;15.27;;;14.07;;
1376;SDS011;682;52.502;13.488;2023-05-15T01:31:23;16.00;;;14.67;;
1376;SDS011;682;52.502;13.488;2023-05-15T01:33:56;15.67;;;14.40;;
1376;SDS011;682;52.502;13.488;2023-05-15T01:36:32;16.70;;;15.30;;
1376;SDS011;682;52.502;13.488;2023-05-15T01:39:02;17.67;;;15.97;;
1376;SDS011;682;52.502;13.488;2023-05-15T01:41:35;17.50;;;15.90;;
1376;SDS011;682;52.502;13.488;2023-05-15T01:44:15;16.30;;;15.10;;
1376;SDS011;682;52.502;13.488;2023-05-15T01:46:57;18.00;;;16.27;;
1376;SDS011;682;52.502;13.488;2023-05-15T01:49:27;16.30;;;14.97;;
1376;SDS011;682;52.502;13.488;2023-05-15T01:51:57;17.87;;;15.97;;
1376;SDS011;682;52.502;13.488;2023-05-15T01:54:32;19.17;;;17.37;;
1376;SDS011;682;52.502;13.488;2023-05-15T01:57:04;16.43;;;15.03;;
1376;SDS011;682;52.502;13.488;2023-05-15T01:59:37;18.60;;;16.93;;
1376;SDS011;682;52.502;13.488;2023-05-15T02:02:05;16.53;;;15.23;;
1376;SDS011;682;52.502;13.488;2023-05-15T02:04:32;17.37;;;15.67;;
1376;SDS011;682;52.502;13.488;2023-05-15T02:07:00;18.13;;;16.50;;
1376;SDS011;682;52.502;13.488;2023-05-15T02:09:29;18.97;;;17.27;;
1376;SDS011;682;52.502;13.488;2023-05-15T02:11:57;17.57;;;16.07;;
1376;SDS011;682;52.502;13.488;2023-05-15T02:14:29;18.17;;;16.67;;
1376;SDS011;682;52.502;13.488;2023-05-15T02:17:02;18.33;;;16.63;;
1376;SDS011;682;52.502;13.488;2023-05-15T02:19:29;18.70;;;17.20;;
1376;SDS011;682;52.502;13.488;2023-05-15T02:21:58;19.50;;;17.80;;
1376;SDS011;682;52.502;13.488;2023-05-15T02:24:25;18.10;;;16.40;;
1376;SDS011;682;52.502;13.488;2023-05-15T02:26:53;18.57;;;17.00;;
1376;SDS011;682;52.502;13.488;2023-05-15T02:29:35;19.13;;;17.33;;
1376;SDS011;682;52.502;13.488;2023-05-15T02:32:20;20.13;;;18.00;;
1376;SDS011;682;52.502;13.488;2023-05-15T02:34:54;19.70;;;18.10;;
1376;SDS011;682;52.502;13.488;2023-05-15T02:37:33;18.10;;;16.50;;
1376;SDS011;682;52.502;13.488;2023-05-15T02:40:05;19.77;;;18.00;;
1376;SDS011;682;52.502;13.488;2023-05-15T02:42:35;20.27;;;18.60;;
1376;SDS011;682;52.502;13.488;2023-05-15T02:45:03;19.23;;;17.60;;
1376;SDS011;682;52.502;13.488;2023-05-15T02:47:45;17.87;;;16.37;;
1376;SDS011;682;52.502;13.488;2023-05-15T02:50:14;17.77;;;16.33;;
1376;SDS011;682;52.502;13.488;2023-05-15T02:52:43;17.60;;;15.97;;
1376;SDS011;682;52.502;13.488;2023-05-15T02:55:11;18.90;;;17.00;;
1376;SDS011;682;52.502;13.488;2023-05-15T02:57:38;19.73;;;17.20;;
1376;SDS011;682;52.502;13.488;2023-05-15T03:00:06;20.03;;;18.23;;
1376;SDS011;682;52.502;13.488;2023-05-15T03:02:36;18.47;;;16.90;;
1376;SDS011;682;52.502;13.488;2023-05-15T03:05:05;18.33;;;16.63;;
1376;SDS011;682;52.502;13.488;2023-05-15T03:07:33;20.27;;;18.27;;
1376;SDS011;682;52.502;13.488;2023-05-15T03:10:00;20.20;;;18.23;;
1376;SDS011;682;52.502;13.488;2023-05-15T03:12:28;18.57;;;17.07;;
1376;SDS011;682;52.502;13.488;2023-05-15T03:14:56;18.93;;;17.30;;
1376;SDS011;682;52.502;13.488;2023-05-15T03:17:26;18.40;;;16.77;;
1376;SDS011;682;52.502;13.488;2023-05-15T03:19:53;18.87;;;17.23;;
1376;SDS011;682;52.502;13.488;2023-05-15T03:22:21;19.50;;;17.90;;
1376;SDS011;682;52.502;13.488;2023-05-15T03:24:49;18.73;;;17.00;;
1376;SDS011;682;52.502;13.488;2023-05-15T03:27:16;18.87;;;17.17;;
1376;SDS011;682;52.502;13.488;2023-05-15T03:29:43;19.27;;;17.47;;
1376;SDS011;682;52.502;13.488;2023-05-15T03:32:13;20.73;;;17.23;;
1376;SDS011;682;52.502;13.488;2023-05-15T03:34:42;20.87;;;18.93;;
1376;SDS011;682;52.502;13.488;2023-05-15T03:37:10;19.13;;;17.53;;
1376;SDS011;682;52.502;13.488;2023-05-15T03:39:39;18.30;;;16.77;;
1376;SDS011;682;52.502;13.488;2023-05-15T03:42:08;21.77;;;19.70;;
1376;SDS011;682;52.502;13.488;2023-05-15T03:44:35;19.97;;;18.07;;
1376;SDS011;682;52.502;13.488;2023-05-15T03:47:02;65.33;;;21.67;;
1376;SDS011;682;52.502;13.488;2023-05-15T03:49:30;34.53;;;18.67;;
1376;SDS011;682;52.502;13.488;2023-05-15T03:52:00;27.47;;;18.40;;
1376;SDS011;682;52.502;13.488;2023-05-15T03:54:27;19.67;;;17.57;;
1376;SDS011;682;52.502;13.488;2023-05-15T03:56:55;19.27;;;17.47;;
1376;SDS011;682;52.502;13.488;2023-05-15T03:59:27;18.70;;;17.13;;
1376;SDS011;682;52.502;13.488;2023-05-15T04:01:54;18.70;;;17.10;;
1376;SDS011;682;52.502;13.488;2023-05-15T04:04:21;19.87;;;17.90;;
1376;SDS011;682;52.502;13.488;2023-05-15T04:06:48;19.90;;;18.10;;
1376;SDS011;682;52.502;13.488;2023-05-15T04:09:16;20.47;;;18.50;;
1376;SDS011;682;52.502;13.488;2023-05-15T04:11:43;19.87;;;17.97;;
1376;SDS011;682;52.502;13.488;2023-05-15T04:14:14;21.23;;;18.00;;
1376;SDS011;682;52.502;13.488;2023-05-15T04:16:41;21.50;;;19.40;;
1376;SDS011;682;52.502;13.488;2023-05-15T04:19:11;20.73;;;18.77;;
1376;SDS011;682;52.502;13.488;2023-05-15T04:21:42;21.57;;;19.40;;
1376;SDS011;682;52.502;13.488;2023-05-15T04:24:12;22.83;;;20.10;;
1376;SDS011;682;52.502;13.488;2023-05-15T04:26:40;20.20;;;18.20;;
1376;SDS011;682;52.502;13.488;2023-05-15T04:29:10;20.83;;;18.83;;
1376;SDS011;682;52.502;13.488;2023-05-15T04:31:43;20.90;;;19.00;;
1376;SDS011;682;52.502;13.488;2023-05-15T04:34:10;20.70;;;18.60;;
1376;SDS011;682;52.502;13.488;2023-05-15T04:36:39;35.37;;;31.57;;
1376;SDS011;682;52.502;13.488;2023-05-15T04:39:07;29.03;;;20.60;;
1376;SDS011;682;52.502;13.488;2023-05-15T04:41:36;24.90;;;19.43;;
1376;SDS011;682;52.502;13.488;2023-05-15T04:44:03;23.53;;;19.20;;
1376;SDS011;682;52.502;13.488;2023-05-15T04:46:43;21.37;;;18.03;;
1376;SDS011;682;52.502;13.488;2023-05-15T04:49:10;19.50;;;17.90;;
1376;SDS011;682;52.502;13.488;2023-05-15T04:51:37;19.07;;;17.27;;
1376;SDS011;682;52.502;13.488;2023-05-15T04:54:09;21.23;;;18.70;;
1376;SDS011;682;52.502;13.488;2023-05-15T04:56:36;19.73;;;17.63;;
1376;SDS011;682;52.502;13.488;2023-05-15T04:59:25;25.10;;;19.70;;
1376;SDS011;682;52.502;13.488;2023-05-15T05:01:55;19.80;;;17.80;;
1376;SDS011;682;52.502;13.488;2023-05-15T05:04:22;20.70;;;18.70;;
1376;SDS011;682;52.502;13.488;2023-05-15T05:06:50;19.03;;;17.23;;
1376;SDS011;682;52.502;13.488;2023-05-15T05:09:17;19.23;;;17.20;;
1376;SDS011;682;52.502;13.488;2023-05-15T05:11:45;20.70;;;18.30;;
1376;SDS011;682;52.502;13.488;2023-05-15T05:14:13;18.63;;;16.93;;
1376;SDS011;682;52.502;13.488;2023-05-15T05:16:43;19.03;;;16.53;;
1376;SDS011;682;52.502;13.488;2023-05-15T05:19:13;19.70;;;16.70;;
1376;SDS011;682;52.502;13.488;2023-05-15T05:21:40;17.87;;;16.17;;
1376;SDS011;682;52.502;13.488;2023-05-15T05:24:08;16.90;;;15.40;;
1376;SDS011;682;52.502;13.488;2023-05-15T05:26:35;20.63;;;15.43;;
1376;SDS011;682;52.502;13.488;2023-05-15T05:29:03;16.73;;;15.00;;
1376;SDS011;682;52.502;13.488;2023-05-15T05:31:34;16.77;;;15.27;;
1376;SDS011;682;52.502;13.488;2023-05-15T05:34:02;17.60;;;15.80;;
1376;SDS011;682;52.502;13.488;2023-05-15T05:36:32;20.20;;;15.53;;
1376;SDS011;682;52.502;13.488;2023-05-15T05:39:01;15.10;;;13.77;;
1376;SDS011;682;52.502;13.488;2023-05-15T05:41:29;19.80;;;14.60;;
1376;SDS011;682;52.502;13.488;2023-05-15T05:43:57;14.60;;;13.30;;
1376;SDS011;682;52.502;13.488;2023-05-15T05:46:28;18.83;;;14.90;;
1376;SDS011;682;52.502;13.488;2023-05-15T05:48:56;16.73;;;14.80;;
1376;SDS011;682;52.502;13.488;2023-05-15T05:51:24;16.93;;;15.43;;
1376;SDS011;682;52.502;13.488;2023-05-15T05:53:53;17.57;;;15.67;;
1376;SDS011;682;52.502;13.488;2023-05-15T05:56:20;15.27;;;13.80;;
1376;SDS011;682;52.502;13.488;2023-05-15T05:58:51;17.50;;;14.60;;
1376;SDS011;682;52.502;13.488;2023-05-15T06:01:21;18.80;;;15.53;;
1376;SDS011;682;52.502;13.488;2023-05-15T06:03:52;18.17;;;16.23;;
1376;SDS011;682;52.502;13.488;2023-05-15T06:06:24;15.00;;;13.77;;
1376;SDS011;682;52.502;13.488;2023-05-15T06:08:55;18.20;;;14.87;;
1376;SDS011;682;52.502;13.488;2023-05-15T06:11:23;17.37;;;15.70;;
1376;SDS011;682;52.502;13.488;2023-05-15T06:13:58;26.40;;;24.00;;
1376;SDS011;682;52.502;13.488;2023-05-15T06:16:28;19.30;;;14.57;;
1376;SDS011;682;52.502;13.488;2023-05-15T06:18:56;17.40;;;13.00;;
1376;SDS011;682;52.502;13.488;2023-05-15T06:21:26;21.60;;;13.60;;
1376;SDS011;682;52.502;13.488;2023-05-15T06:23:55;15.57;;;13.27;;
1376;SDS011;682;52.502;13.488;2023-05-15T06:26:22;16.57;;;11.97;;
1376;SDS011;682;52.502;13.488;2023-05-15T06:28:49;15.50;;;13.40;;
1376;SDS011;682;52.502;13.488;2023-05-15T06:31:17;15.37;;;13.80;;
1376;SDS011;682;52.502;13.488;2023-05-15T06:33:45;13.87;;;12.47;;
1376;SDS011;682;52.502;13.488;2023-05-15T06:36:12;14.17;;;12.83;;
1376;SDS011;682;52.502;13.488;2023-05-15T06:38:53;15.00;;;12.87;;
1376;SDS011;682;52.502;13.488;2023-05-15T06:41:22;17.07;;;15.03;;
1376;SDS011;682;52.502;13.488;2023-05-15T06:43:51;14.20;;;12.90;;
1376;SDS011;682;52.502;13.488;2023-05-15T06:46:19;14.23;;;12.03;;
1376;SDS011;682;52.502;13.488;2023-05-15T06:48:49;14.93;;;13.43;;
1376;SDS011;682;52.502;13.488;2023-05-15T06:51:16;14.50;;;13.00;;
1376;SDS011;682;52.502;13.488;2023-05-15T06:53:43;14.03;;;12.60;;
1376;SDS011;682;52.502;13.488;2023-05-15T06:56:13;15.10;;;11.73;;
1376;SDS011;682;52.502;13.488;2023-05-15T06:58:41;13.27;;;12.03;;
1376;SDS011;682;52.502;13.488;2023-05-15T07:01:13;14.10;;;12.63;;
1376;SDS011;682;52.502;13.488;2023-05-15T07:03:42;14.50;;;13.00;;
1376;SDS011;682;52.502;13.488;2023-05-15T07:06:10;19.83;;;12.20;;
1376;SDS011;682;52.502;13.488;2023-05-15T07:08:37;11.97;;;10.63;;
1376;SDS011;682;52.502;13.488;2023-05-15T07:11:05;16.30;;;12.00;;
1376;SDS011;682;52.502;13.488;2023-05-15T07:13:36;17.10;;;11.33;;
1376;SDS011;682;52.502;13.488;2023-05-15T07:16:03;17.43;;;11.50;;
1376;SDS011;682;52.502;13.488;2023-05-15T07:18:31;25.57;;;12.13;;
1376;SDS011;682;52.502;13.488;2023-05-15T07:21:08;15.97;;;12.50;;
1376;SDS011;682;52.502;13.488;2023-05-15T07:23:38;18.07;;;12.30;;
1376;SDS011;682;52.502;13.488;2023-05-15T07:26:06;16.20;;;12.73;;
1376;SDS011;682;52.502;13.488;2023-05-15T07:28:37;23.10;;;12.50;;
1376;SDS011;682;52.502;13.488;2023-05-15T07:31:06;19.87;;;12.30;;
1376;SDS011;682;52.502;13.488;2023-05-15T07:33:33;14.97;;;11.43;;
1376;SDS011;682;52.502;13.488;2023-05-15T07:36:01;15.50;;;12.20;;
1376;SDS011;682;52.502;13.488;2023-05-15T07:38:31;16.70;;;12.23;;
1376;SDS011;682;52.502;13.488;2023-05-15T07:40:59;13.73;;;10.90;;
1376;SDS011;682;52.502;13.488;2023-05-15T07:43:28;15.17;;;12.20;;
1376;SDS011;682;52.502;13.488;2023-05-15T07:45:57;13.70;;;11.60;;
1376;SDS011;682;52.502;13.488;2023-05-15T07:48:24;15.90;;;12.23;;
1376;SDS011;682;52.502;13.488;2023-05-15T07:50:53;22.63;;;14.00;;
1376;SDS011;682;52.502;13.488;2023-05-15T07:53:21;14.87;;;13.40;;
1376;SDS011;682;52.502;13.488;2023-05-15T07:55:51;16.10;;;12.83;;
1376;SDS011;682;52.502;13.488;2023-05-15T07:58:21;11.10;;;10.00;;
1376;SDS011;682;52.502;13.488;2023-05-15T08:00:49;11.47;;;9.90;;
1376;SDS011;682;52.502;13.488;2023-05-15T08:03:17;11.27;;;9.33;;
1376;SDS011;682;52.502;13.488;2023-05-15T08:05:44;10.87;;;9.77;;
1376;SDS011;682;52.502;13.488;2023-05-15T08:08:11;11.97;;;9.90;;
1376;SDS011;682;52.502;13.488;2023-05-15T08:10:41;11.17;;;10.20;;
1376;SDS011;682;52.502;13.488;2023-05-15T08:13:08;19.20;;;10.97;;
1376;SDS011;682;52.502;13.488;2023-05-15T08:15:37;17.13;;;15.77;;
1376;SDS011;682;52.502;13.488;2023-05-15T08:18:06;10.30;;;8.67;;
1376;SDS011;682;52.502;13.488;2023-05-15T08:20:36;9.87;;;9.03;;
1376;SDS011;682;52.502;13.488;2023-05-15T08:23:03;9.97;;;9.13;;
1376;SDS011;682;52.502;13.488;2023-05-15T08:25:31;10.73;;;9.83;;
1376;SDS011;682;52.502;13.488;2023-05-15T08:27:58;11.20;;;9.90;;
1376;SDS011;682;52.502;13.488;2023-05-15T08:30:25;9.17;;;8.37;;
1376;SDS011;682;52.502;13.488;2023-05-15T08:32:52;9.93;;;8.93;;
1376;SDS011;682;52.502;13.488;2023-05-15T08:35:20;10.93;;;9.00;;
1376;SDS011;682;52.502;13.488;2023-05-15T08:37:49;9.73;;;8.73;;
1376;SDS011;682;52.502;13.488;2023-05-15T08:40:18;13.10;;;10.60;;
1376;SDS011;682;52.502;13.488;2023-05-15T08:42:47;9.50;;;8.60;;
1376;SDS011;682;52.502;13.488;2023-05-15T08:45:15;22.57;;;19.40;;
1376;SDS011;682;52.502;13.488;2023-05-15T08:47:44;10.43;;;9.53;;
1376;SDS011;682;52.502;13.488;2023-05-15T08:50:11;11.07;;;9.87;;
1376;SDS011;682;52.502;13.488;2023-05-15T08:52:42;11.93;;;10.00;;
1376;SDS011;682;52.502;13.488;2023-05-15T08:55:13;11.73;;;10.53;;
1376;SDS011;682;52.502;13.488;2023-05-15T08:57:47;11.43;;;10.30;;
1376;SDS011;682;52.502;13.488;2023-05-15T09:00:15;14.90;;;12.77;;
1376;SDS011;682;52.502;13.488;2023-05-15T09:02:45;11.27;;;10.27;;
1376;SDS011;682;52.502;13.488;2023-05-15T09:05:12;14.50;;;10.23;;
1376;SDS011;682;52.502;13.488;2023-05-15T09:07:40;18.30;;;11.40;;
1376;SDS011;682;52.502;13.488;2023-05-15T09:10:09;14.10;;;10.20;;
1376;SDS011;682;52.502;13.488;2023-05-15T09:12:41;11.70;;;10.70;;
1376;SDS011;682;52.502;13.488;2023-05-15T09:15:10;12.93;;;10.80;;
1376;SDS011;682;52.502;13.488;2023-05-15T09:17:40;10.93;;;9.80;;
1376;SDS011;682;52.502;13.488;2023-05-15T09:20:10;12.17;;;10.93;;
1376;SDS011;682;52.502;13.488;2023-05-15T09:23:05;11.17;;;9.07;;
1376;SDS011;682;52.502;13.488;2023-05-15T09:25:50;9.67;;;8.83;;
1376;SDS011;682;52.502;13.488;2023-05-15T09:28:24;9.27;;;8.37;;
1376;SDS011;682;52.502;13.488;2023-05-15T09:30:57;12.70;;;8.80;;
1376;SDS011;682;52.502;13.488;2023-05-15T09:33:28;10.70;;;9.73;;
1376;SDS011;682;52.502;13.488;2023-05-15T09:35:56;9.73;;;8.80;;
1376;SDS011;682;52.502;13.488;2023-05-15T09:38:31;9.37;;;8.60;;
1376;SDS011;682;52.502;13.488;2023-05-15T09:41:04;9.70;;;8.90;;
1376;SDS011;682;52.502;13.488;2023-05-15T09:43:35;11.53;;;10.53;;
1376;SDS011;682;52.502;13.488;2023-05-15T09:46:03;10.40;;;9.33;;
1376;SDS011;682;52.502;13.488;2023-05-15T09:48:33;9.90;;;9.10;;
1376;SDS011;682;52.502;13.488;2023-05-15T09:51:00;11.03;;;8.53;;
1376;SDS011;682;52.502;13.488;2023-05-15T09:53:30;12.90;;;8.97;;
1376;SDS011;682;52.502;13.488;2023-05-15T09:55:57;11.13;;;10.23;;
1376;SDS011;682;52.502;13.488;2023-05-15T09:58:26;15.77;;;12.00;;
1376;SDS011;682;52.502;13.488;2023-05-15T10:00:53;10.97;;;10.00;;
1376;SDS011;682;52.502;13.488;2023-05-15T10:03:25;10.10;;;9.10;;
1376;SDS011;682;52.502;13.488;2023-05-15T10:05:55;14.03;;;10.47;;
1376;SDS011;682;52.502;13.488;2023-05-15T10:08:26;12.97;;;10.63;;
1376;SDS011;682;52.502;13.488;2023-05-15T10:10:55;11.77;;;10.53;;
1376;SDS011;682;52.502;13.488;2023-05-15T10:13:27;16.33;;;10.03;;
1376;SDS011;682;52.502;13.488;2023-05-15T10:15:59;10.70;;;9.77;;
1376;SDS011;682;52.502;13.488;2023-05-15T10:18:27;12.40;;;11.10;;
1376;SDS011;682;52.502;13.488;2023-05-15T10:20:58;16.13;;;10.67;;
1376;SDS011;682;52.502;13.488;2023-05-15T10:23:28;11.57;;;9.07;;
1376;SDS011;682;52.502;13.488;2023-05-15T10:25:58;13.97;;;12.70;;
1376;SDS011;682;52.502;13.488;2023-05-15T10:28:30;10.90;;;10.00;;
1376;SDS011;682;52.502;13.488;2023-05-15T10:30:59;8.53;;;7.73;;
1376;SDS011;682;52.502;13.488;2023-05-15T10:33:28;8.97;;;8.17;;
1376;SDS011;682;52.502;13.488;2023-05-15T10:35:55;10.47;;;7.97;;
1376;SDS011;682;52.502;13.488;2023-05-15T10:38:29;7.87;;;7.20;;
1376;SDS011;682;52.502;13.488;2023-05-15T10:40:56;8.20;;;7.60;;
1376;SDS011;682;52.502;13.488;2023-05-15T10:43:25;8.63;;;7.80;;
1376;SDS011;682;52.502;13.488;2023-05-15T10:45:56;7.93;;;7.20;;
1376;SDS011;682;52.502;13.488;2023-05-15T10:48:24;8.00;;;7.20;;
1376;SDS011;682;52.502;13.488;2023-05-15T10:50:53;8.80;;;8.10;;
1376;SDS011;682;52.502;13.488;2023-05-15T10:53:20;8.53;;;7.43;;
1376;SDS011;682;52.502;13.488;2023-05-15T10:55:47;9.07;;;8.37;;
1376;SDS011;682;52.502;13.488;2023-05-15T10:58:15;13.30;;;11.97;;
1376;SDS011;682;52.502;13.488;2023-05-15T11:00:44;29.77;;;26.90;;
1376;SDS011;682;52.502;13.488;2023-05-15T11:03:13;10.03;;;9.33;;
1376;SDS011;682;52.502;13.488;2023-05-15T11:08:34;8.83;;;8.00;;
1376;SDS011;682;52.502;13.488;2023-05-15T11:11:01;9.77;;;7.60;;
1376;SDS011;682;52.502;13.488;2023-05-15T11:19:32;7.00;;;6.40;;
1376;SDS011;682;52.502;13.488;2023-05-15T11:22:16;8.30;;;6.17;;
1376;SDS011;682;52.502;13.488;2023-05-15T11:24:51;8.50;;;6.77;;
1376;SDS011;682;52.502;13.488;2023-05-15T11:27:23;6.93;;;5.57;;
1376;SDS011;682;52.502;13.488;2023-05-15T11:32:48;9.63;;;6.60;;
1376;SDS011;682;52.502;13.488;2023-05-15T11:35:22;7.17;;;5.20;;
1376;SDS011;682;52.502;13.488;2023-05-15T11:37:55;6.07;;;5.47;;
1376;SDS011;682;52.502;13.488;2023-05-15T11:40:28;4.83;;;4.40;;
1376;SDS011;682;52.502;13.488;2023-05-15T11:42:59;5.43;;;4.93;;
1376;SDS011;682;52.502;13.488;2023-05-15T11:45:34;5.37;;;4.90;;
1376;SDS011;682;52.502;13.488;2023-05-15T11:48:03;5.53;;;4.20;;
1376;SDS011;682;52.502;13.488;2023-05-15T11:50:33;11.03;;;4.67;;
1376;SDS011;682;52.502;13.488;2023-05-15T11:53:01;4.73;;;4.23;;
1376;SDS011;682;52.502;13.488;2023-05-15T11:55:30;6.00;;;3.97;;
1376;SDS011;682;52.502;13.488;2023-05-15T11:57:58;5.97;;;3.97;;
1376;SDS011;682;52.502;13.488;2023-05-15T12:00:30;4.20;;;3.23;;
1376;SDS011;682;52.502;13.488;2023-05-15T12:02:57;4.23;;;3.20;;
1376;SDS011;682;52.502;13.488;2023-05-15T12:05:28;4.67;;;3.43;;
1376;SDS011;682;52.502;13.488;2023-05-15T12:07:57;4.33;;;2.90;;
1376;SDS011;682;52.502;13.488;2023-05-15T12:10:26;4.47;;;2.83;;
1376;SDS011;682;52.502;13.488;2023-05-15T12:12:55;2.73;;;2.53;;
1376;SDS011;682;52.502;13.488;2023-05-15T12:15:23;3.57;;;3.27;;
1376;SDS011;682;52.502;13.488;2023-05-15T12:17:51;3.27;;;2.90;;
1376;SDS011;682;52.502;13.488;2023-05-15T12:20:18;4.87;;;4.50;;
1376;SDS011;682;52.502;13.488;2023-05-15T12:22:47;3.73;;;3.43;;
1376;SDS011;682;52.502;13.488;2023-05-15T12:25:16;3.53;;;3.23;;
1376;SDS011;682;52.502;13.488;2023-05-15T12:27:44;3.13;;;2.93;;
1376;SDS011;682;52.502;13.488;2023-05-15T12:30:14;35.37;;;11.63;;
1376;SDS011;682;52.502;13.488;2023-05-15T12:32:42;3.97;;;3.57;;
1376;SDS011;682;52.502;13.488;2023-05-15T12:35:11;3.57;;;3.27;;
1376;SDS011;682;52.502;13.488;2023-05-15T12:37:40;16.00;;;14.50;;
1376;SDS011;682;52.502;13.488;2023-05-15T12:40:09;3.60;;;3.30;;
1376;SDS011;682;52.502;13.488;2023-05-15T12:42:38;3.20;;;2.90;;
1376;SDS011;682;52.502;13.488;2023-05-15T12:45:13;3.10;;;2.80;;
1376;SDS011;682;52.502;13.488;2023-05-15T12:47:41;4.13;;;3.73;;
1376;SDS011;682;52.502;13.488;2023-05-15T12:50:12;4.13;;;3.70;;
1376;SDS011;682;52.502;13.488;2023-05-15T12:52:45;4.63;;;4.23;;
1376;SDS011;682;52.502;13.488;2023-05-15T12:55:16;3.50;;;3.23;;
1376;SDS011;682;52.502;13.488;2023-05-15T12:57:46;4.83;;;3.40;;
1376;SDS011;682;52.502;13.488;2023-05-15T13:00:14;7.47;;;4.90;;
1376;SDS011;682;52.502;13.488;2023-05-15T13:02:43;3.20;;;3.00;;
1376;SDS011;682;52.502;13.488;2023-05-15T13:05:10;9.37;;;8.43;;
1376;SDS011;682;52.502;13.488;2023-05-15T13:07:37;4.10;;;3.73;;
1376;SDS011;682;52.502;13.488;2023-05-15T13:10:07;4.07;;;3.53;;
1376;SDS011;682;52.502;13.488;2023-05-15T13:12:35;3.60;;;3.30;;
1376;SDS011;682;52.502;13.488;2023-05-15T13:15:21;3.70;;;3.40;;
1376;SDS011;682;52.502;13.488;2023-05-15T13:17:56;4.50;;;3.67;;
1376;SDS011;682;52.502;13.488;2023-05-15T13:20:26;6.03;;;5.03;;
1376;SDS011;682;52.502;13.488;2023-05-15T13:22:54;3.53;;;3.20;;
1376;SDS011;682;52.502;13.488;2023-05-15T13:25:21;3.17;;;2.97;;
1376;SDS011;682;52.502;13.488;2023-05-15T13:27:49;3.80;;;3.30;;
1376;SDS011;682;52.502;13.488;2023-05-15T14:00:47;7.00;;;2.90;;
1376;SDS011;682;52.502;13.488;2023-05-15T14:03:17;3.80;;;3.40;;
1376;SDS011;682;52.502;13.488;2023-05-15T14:06:01;3.60;;;2.70;;
1376;SDS011;682;52.502;13.488;2023-05-15T14:12:46;8.20;;;4.20;;
1376;SDS011;682;52.502;13.488;2023-05-15T14:15:19;4.40;;;3.23;;
1376;SDS011;682;52.502;13.488;2023-05-15T14:17:48;4.93;;;4.27;;
1376;SDS011;682;52.502;13.488;2023-05-15T14:20:16;4.97;;;4.33;;
1376;SDS011;682;52.502;13.488;2023-05-15T14:22:43;4.90;;;3.70;;
1376;SDS011;682;52.502;13.488;2023-05-15T14:25:12;6.00;;;3.93;;
1376;SDS011;682;52.502;13.488;2023-05-15T14:27:48;6.80;;;4.30;;
1376;SDS011;682;52.502;13.488;2023-05-15T14:30:15;7.90;;;5.03;;
1376;SDS011;682;52.502;13.488;2023-05-15T14:32:44;4.60;;;4.23;;
1376;SDS011;682;52.502;13.488;2023-05-15T14:35:13;4.43;;;4.13;;
1376;SDS011;682;52.502;13.488;2023-05-15T14:37:41;5.73;;;5.07;;
1376;SDS011;682;52.502;13.488;2023-05-15T14:40:55;5.00;;;4.50;;
1376;SDS011;682;52.502;13.488;2023-05-15T14:43:07;6.03;;;5.53;;
1376;SDS011;682;52.502;13.488;2023-05-15T14:45:53;5.70;;;4.90;;
1376;SDS011;682;52.502;13.488;2023-05-15T14:48:20;5.90;;;5.40;;
1376;SDS011;682;52.502;13.488;2023-05-15T15:03:56;4.47;;;4.10;;
1376;SDS011;682;52.502;13.488;2023-05-15T15:06:31;5.60;;;4.37;;
1376;SDS011;682;52.502;13.488;2023-05-15T15:09:23;4.00;;;3.60;;
1376;SDS011;682;52.502;13.488;2023-05-15T15:11:50;4.87;;;4.07;;
1376;SDS011;682;52.502;13.488;2023-05-15T15:14:20;3.57;;;3.37;;
1376;SDS011;682;52.502;13.488;2023-05-15T15:16:48;5.73;;;3.97;;
1376;SDS011;682;52.502;13.488;2023-05-15T15:19:17;5.10;;;4.67;;
1376;SDS011;682;52.502;13.488;2023-05-15T15:21:47;5.60;;;4.00;;
1376;SDS011;682;52.502;13.488;2023-05-15T15:24:16;4.03;;;3.73;;
1376;SDS011;682;52.502;13.488;2023-05-15T15:26:43;5.13;;;4.73;;
1376;SDS011;682;52.502;13.488;2023-05-15T15:29:10;4.90;;;3.60;;
1376;SDS011;682;52.502;13.488;2023-05-15T15:31:37;4.90;;;4.40;;
1376;SDS011;682;52.502;13.488;2023-05-15T15:34:03;4.60;;;4.20;;
1376;SDS011;682;52.502;13.488;2023-05-15T15:36:32;4.27;;;3.87;;
1376;SDS011;682;52.502;13.488;2023-05-15T15:39:03;4.53;;;4.07;;
1376;SDS011;682;52.502;13.488;2023-05-15T15:41:30;4.90;;;4.40;;
1376;SDS011;682;52.502;13.488;2023-05-15T15:43:57;4.63;;;4.17;;
1376;SDS011;682;52.502;13.488;2023-05-15T15:46:25;5.23;;;4.37;;
1376;SDS011;682;52.502;13.488;2023-05-15T15:48:52;4.23;;;3.60;;
1376;SDS011;682;52.502;13.488;2023-05-15T15:51:19;7.53;;;6.93;;
1376;SDS011;682;52.502;13.488;2023-05-15T15:53:46;4.30;;;4.00;;
1376;SDS011;682;52.502;13.488;2023-05-15T15:56:17;3.83;;;3.53;;
1376;SDS011;682;52.502;13.488;2023-05-15T15:58:47;5.93;;;3.93;;
1376;SDS011;682;52.502;13.488;2023-05-15T16:01:14;4.30;;;3.90;;
1376;SDS011;682;52.502;13.488;2023-05-15T16:03:42;4.93;;;4.43;;
1376;SDS011;682;52.502;13.488;2023-05-15T16:06:12;5.20;;;4.50;;
1376;SDS011;682;52.502;13.488;2023-05-15T16:08:39;4.63;;;4.20;;
1376;SDS011;682;52.502;13.488;2023-05-15T16:11:09;6.63;;;5.20;;
1376;SDS011;682;52.502;13.488;2023-05-15T16:13:41;5.50;;;4.63;;
1376;SDS011;682;52.502;13.488;2023-05-15T16:16:08;4.80;;;4.40;;